Terminal Aerodrome Forecast
Issued by NWS

Home | Current Version | Previous Version | Text Only | Print | Product List | Glossary On
Versions: 1 2 3 4 5 6 7 8 9 10 11 12 13
770
FTUS45 KABQ 262320
TAFLVS
TAF
KLVS 262320Z 2700/2724 05013G22KT P6SM SKC
     FM270200 02006KT P6SM FEW060
     FM271400 21008KT P6SM SKC
     FM271700 20013G21KT P6SM SCT200=

USA.gov is the U.S. government's official web portal to all federal, state and local government web resources and services.